Tiempo atmosférico en la estación meteorológica de A Lama, Pontevedra (395 m.)



Fecha
DESCASC
Temp. máxima en grados centígrados (hora)
DESCASC
Temp. mínima en grados centígrados (hora)
DESCASC
Temp. media en grados centígrados
DESCASC
Racha de viento máxima en m/sg (hora)
DESCASC
Velocidad máxima media en intervalos de 10 minutos(hora)
DESCASC
Precipitaciones diarias en mm
DESCASC
Precipitaciones de 00:00 a 06:00 en mm
DESCASC
Precipitaciones de 06:00 a 12:00 en mm
DESCASC
Precipitaciones de 12:00 a 18:00 en mm
DESCASC
Precipitaciones de 18:00 a 24:00 en mm
DESCASC
29-03-2020 18.6 (15:00) 3.8 (00:20) 11.2 12.22 (22:30) 7.5 (23:00) 0 0 0 0 0
28-03-2020 17.2 (15:00) 2.8 (05:10) 10 8.33 (15:30) 5 (07:00) 0 0 0 0 0
27-03-2020 16.7 (16:30) 3.7 (23:59) 10.2 11.67 (07:40) 6.11 (07:00) 0 0 0 0 0
26-03-2020 18.1 (15:20) -0.9 (-00:0) 8.6 9.17 (21:50) 5.56 (13:00) 0 0 0 0 0
25-03-2020 19 (14:00) 4.8 (00:00) 11.9 7.5 (15:00) 4.72 (14:50) 0 0 0 0 0
24-03-2020 20.1 (15:50) 7.5 (00:00) 13.8 10.83 (00:20) 5.83 (00:10) 0 0 0 0 0
23-03-2020 18.8 (15:10) 9.2 (00:00) 14 12.5 (09:50) 7.22 (08:50) 0 0 0 0 0
22-03-2020 17.7 (16:40) 8.4 (07:40) 13.1 8.33 (22:20) 3.61 (12:00) 0 0 0 0 0
21-03-2020 14.6 (14:50) 9.1 (00:00) 11.9 5.28 (03:20) 2.78 (15:30) 2.4 1.2 0 0 1.2
20-03-2020 12.8 (15:40) 10.2 (00:00) 11.5 7.5 (02:10) 3.61 (02:00) 4.4 1.8 0.2 2.4 0
19-03-2020 20.4 (13:40) 8.3 (00:00) 14.3 6.39 (15:30) 3.61 (14:40) 0 0 0 0 0
18-03-2020 23.3 (15:40) 10 (00:00) 16.6 8.06 (10:10) 4.17 (00:40) 0 0 0 0 0
17-03-2020 19.8 (15:50) 6 (00:00) 12.9 15 (02:20) 8.61 (02:20) 0 0 0 0 0
16-03-2020 11.1 (15:00) 1 (00:00) 6.1 12.5 (14:50) 5 (20:30) 1.4 0.8 0.2 0.4 0
15-03-2020 12 (11:40) 1.3 (00:00) 6.6 10.56 (13:10) 6.94 (13:10) 8.2 0 0 7.4 0.8
14-03-2020 19.4 (15:30) 2 (00:00) 10.7 10 (02:40) 6.39 (02:40) 0 0 0 0 0
13-03-2020 16.2 (15:30) 7.4 (03:20) 11.8 15 (04:30) 7.5 (05:10) 0 0 0 0 0
12-03-2020 16.7 (14:40) 7.1 (00:00) 11.9 9.44 (18:40) 5 (21:10) 0 0 0 0 0
11-03-2020 19.3 (15:40) 4 (00:00) 11.6 6.11 (14:40) 3.33 (17:30) 0 0 0 0 0
10-03-2020 16.5 (17:00) 2.1 (00:00) 9.3 6.39 (14:30) 3.61 (15:00) 0 0 0 0 0
09-03-2020 14 (15:20) 1.8 (00:00) 7.9 5.28 (13:20) 2.78 (13:20) 0 0 0 0 0
08-03-2020 11.4 (16:40) 2.8 (00:00) 7.1 6.67 (16:20) 3.33 (12:40) 4.4 0 2.6 1.8 0
07-03-2020 14 (15:30) 4.3 (00:00) 9.2 6.11 (16:10) 3.33 (16:40) 0 0 0 0 0
06-03-2020 11.8 (16:10) 5.5 (00:00) 8.7 10.56 (00:50) 6.11 (00:50) 3 2.4 0.6 0 0
05-03-2020 12.9 (00:00) 7.7 (00:00) 10.3 14.17 (07:30) 7.5 (07:30) 58 39.2 8.8 4.2 5.8
04-03-2020 14.2 (13:20) 11.8 (02:10) 13 12.22 (22:40) 5.83 (23:10) 28.4 7.6 4.8 6 10
03-03-2020 13 (14:40) 7.9 (00:00) 10.5 14.44 (09:50) 6.39 (07:10) 65.4 18.4 22 6.4 18.6
02-03-2020 12 (00:20) 5.2 (00:00) 8.6 20 (00:50) 10.28 (02:00) 16.8 13.8 2.6 0.2 0.2
01-03-2020 12.1 (21:40) 7.7 (00:00) 9.9 22.78 (23:00) 9.44 (23:30) 75.4 16.8 1.4 3.6 53.6
29-02-2020 11.4 (05:00) 7.7 (00:00) 9.5 15.28 (05:30) 7.22 (03:10) 44.6 39.8 0.6 1.2 3

Gráficas

Temp. máximas Temp. mínimas Temp. medias Precipitaciones Rachas de viento máximas Velocidades máximas media en intervalos de 10 minutos

Datos horarios

Fecha y hora oficial Temperatura (ºC) Velocidad del viento (km/h) Dirección del viento Racha (km/h) Dirección de racha Precipitación (mm) Presión (hPa) Tendencia (hPa) Humedad (%)
2020-03-29 23:00:00 9.7 27 Este 44 Este 0 -- -- 69
2020-03-29 22:00:00 11.2 17 Este 36 Este 0 -- -- 63
2020-03-29 21:00:00 13.1 9 Este 27 Este 0 -- -- 60
2020-03-29 20:00:00 14.9 4 Nordeste 18 Norte 0 -- -- 56
2020-03-29 19:00:00 16.8 6 Nordeste 20 Norte 0 -- -- 49
2020-03-29 18:00:00 16.8 12 Noroeste 23 Noroeste 0 -- -- 46
2020-03-29 17:00:00 17 10 Noroeste 18 Oeste 0 -- -- 47
2020-03-29 16:00:00 17 3 Norte 22 Noroeste 0 -- -- 53
2020-03-29 15:00:00 18.6 12 Oeste 23 Oeste 0 -- -- 43
2020-03-29 14:00:00 17.6 9 Sudoeste 22 Sudoeste 0 -- -- 45
2020-03-29 13:00:00 16.6 13 Oeste 18 Oeste 0 -- -- 44
2020-03-29 12:00:00 15.7 4 Este 18 Este 0 -- -- 49
2020-03-29 11:00:00 12.9 11 Este 22 Este 0 -- -- 64
2020-03-29 10:00:00 8 5 Noroeste 16 Nordeste 0 -- -- 78
2020-03-29 09:00:00 5.1 6 Norte 17 Nordeste 0 -- -- 87
2020-03-29 08:00:00 5.8 8 Nordeste 19 Nordeste 0 -- -- 80
2020-03-29 07:00:00 5.8 6 Norte 13 Nordeste 0 -- -- 82
2020-03-29 06:00:00 5.1 4 Norte 9 Noroeste 0 -- -- 81
2020-03-29 05:00:00 7.6 4 Noroeste 23 Nordeste 0 -- -- 71
2020-03-29 03:00:00 7 10 Este 22 Este 0 -- -- 82
2020-03-29 01:00:00 4.9 4 Noroeste 12 Sudeste 0 -- -- 86
2020-03-29 00:00:00 3.9 4 Norte 10 Norte 0 -- -- 88
2020-03-28 23:00:00 4.8 2 Noroeste 9 Nordeste 0 -- -- 84
2020-03-28 22:00:00 6.6 5 Nordeste 9 Nordeste 0 -- -- 80
2020-03-28 21:00:00 8.4 2 Noroeste 4 Noroeste 0 -- -- 72
2020-03-28 20:00:00 11.5 0 Calma 13 Noroeste 0 -- -- 61
2020-03-28 19:00:00 14.1 7 Noroeste 20 Oeste 0 -- -- 52
2020-03-28 18:00:00 15.5 12 Oeste 25 Oeste 0 -- -- 50
2020-03-28 17:00:00 16.5 15 Noroeste 28 Noroeste 0 -- -- 45
2020-03-28 16:00:00 16.5 17 Noroeste 30 Norte 0 -- -- 44
2020-03-28 15:00:00 17.2 8 Sudoeste 21 Oeste 0 -- -- 42
2020-03-28 14:00:00 14.8 8 Noroeste 21 Noroeste 0 -- -- 45
2020-03-28 13:00:00 15.5 8 Este 17 Nordeste 0 -- -- 40
2020-03-28 12:00:00 14.1 5 Nordeste 9 Este 0 -- -- 48
2020-03-28 11:00:00 11.9 4 Este 16 Este 0 -- -- 51
2020-03-28 10:00:00 10.4 11 Este 23 Este 0 -- -- 51
2020-03-28 09:00:00 9.1 10 Este 22 Este 0 -- -- 52
2020-03-28 08:00:00 8.9 14 Este 28 Este 0 -- -- 52
2020-03-28 07:00:00 8.4 18 Este 29 Este 0 -- -- 57
2020-03-28 06:00:00 4.3 6 Nordeste 13 Nordeste 0 -- -- 82
2020-03-28 05:00:00 2.9 6 Norte 9 Noroeste 0 -- -- 82
2020-03-28 04:00:00 4.8 2 Noroeste 10 Noroeste 0 -- -- 70
2020-03-28 03:00:00 4.6 6 Noroeste 10 Sudeste 0 -- -- 73
2020-03-28 02:00:00 6.1 8 Este 18 Este 0 -- -- 67
2020-03-28 01:00:00 4.1 4 Este 12 Este 0 -- -- 84
2020-03-28 00:00:00 3.7 4 Norte 14 Nordeste 0 -- -- 85
2020-03-27 23:00:00 5.2 6 Nordeste 14 Nordeste 0 -- -- 83
2020-03-27 22:00:00 5.8 5 Nordeste 15 Nordeste 0 -- -- 80
2020-03-27 21:00:00 7.4 6 Nordeste 10 Nordeste 0 -- -- 75
2020-03-27 20:00:00 10.1 0 Calma 13 Oeste 0 -- -- 67
2020-03-27 19:00:00 12.3 7 Oeste 24 Noroeste 0 -- -- 58
2020-03-27 18:00:00 13.8 12 Noroeste 23 Noroeste 0 -- -- 53
2020-03-27 17:00:00 15.4 9 Noroeste 27 Sur 0 -- -- 47
2020-03-27 16:00:00 16 14 Sur 33 Sudeste 0 -- -- 25
2020-03-27 15:00:00 15.6 8 Sudeste 29 Sudeste 0 -- -- 29
2020-03-27 14:00:00 14.6 14 Sudeste 28 Este 0 -- -- 32
2020-03-27 13:00:00 13.2 9 Sur 26 Sudeste 0 -- -- 39
2020-03-27 12:00:00 12.1 11 Sudeste 29 Este 0 -- -- 42
2020-03-27 11:00:00 10.1 8 Este 32 Este 0 -- -- 53
2020-03-27 10:00:00 8.3 13 Este 30 Este 0 -- -- 59
2020-03-27 09:00:00 7.4 9 Este 28 Sudeste 0 -- -- 63
2020-03-27 08:00:00 5.3 12 Sudeste 42 Este 0 -- -- 70
2020-03-27 07:00:00 5 22 Este 35 Este 0 -- -- 72
2020-03-27 06:00:00 4.7 8 Este 27 Este 0 -- -- 72
2020-03-27 05:00:00 4.8 13 Este 31 Este 0 -- -- 72
2020-03-27 04:00:00 5 16 Este 32 Nordeste 0 -- -- 71
2020-03-27 03:00:00 5.2 6 Este 18 Este 0 -- -- 68
2020-03-27 02:00:00 5.9 10 Este 22 Nordeste 0 -- -- 63
2020-03-27 01:00:00 6.2 8 Nordeste 28 Este 0 -- -- 66
2020-03-27 00:00:00 6.5 7 Este 23 Este 0 -- -- 66
2020-03-26 23:00:00 7.4 8 Este 28 Este 0 -- -- 65
2020-03-26 22:00:00 8.7 14 Este 33 Nordeste 0 -- -- 63
2020-03-26 21:00:00 10.2 5 Nordeste 14 Nordeste 0 -- -- 67
2020-03-26 20:00:00 12.5 7 Norte 20 Norte 0 -- -- 60
2020-03-26 19:00:00 15.4 7 Norte 18 Noroeste 0 -- -- 51
2020-03-26 18:00:00 16.7 11 Norte 28 Noroeste 0 -- -- 44
2020-03-26 17:00:00 17.4 16 Noroeste 28 Noroeste 0 -- -- 38
2020-03-26 16:00:00 17.6 13 Noroeste 26 Noroeste 0 -- -- 30
2020-03-26 15:00:00 17.7 10 Este 31 Este 0 -- -- 32
2020-03-26 14:00:00 17.8 9 Norte 28 Noroeste 0 -- -- 24
2020-03-26 13:00:00 16.7 20 Noroeste 32 Noroeste 0 -- -- 26
2020-03-26 12:00:00 15 7 Sudoeste 17 Oeste 0 -- -- 41
2020-03-26 11:00:00 11.7 7 Sudoeste 12 Sudoeste 0 -- -- 63
2020-03-26 10:00:00 8.3 4 Sudoeste 10 Sudoeste 0 -- -- 82
2020-03-26 09:00:00 1.5 3 Noroeste 9 Noroeste 0 -- -- 96
2020-03-26 08:00:00 -0.9 0 Calma 5 Noroeste 0 -- -- 96
2020-03-26 07:00:00 -0.1 3 Norte 6 Noroeste 0 -- -- 96
2020-03-26 06:00:00 0.5 0 Calma 5 Noroeste 0 -- -- 96
2020-03-26 05:00:00 1.7 2 Noroeste 9 Nordeste 0 -- -- 96
2020-03-26 04:00:00 2.3 3 Noroeste 5 Noroeste 0 -- -- 95
2020-03-26 03:00:00 3.3 0 Calma 4 Noroeste 0 -- -- 95
2020-03-26 02:00:00 4.2 2 Noroeste 6 Noroeste 0 -- -- 94
2020-03-26 01:00:00 5 3 Noroeste 6 Norte 0 -- -- 94
2020-03-26 00:00:00 5.8 0 Calma 3 Noroeste 0 -- -- 94
2020-03-25 23:00:00 7 0 Calma 4 Noroeste 0 -- -- 92
2020-03-25 22:00:00 8.4 0 Calma 5 Noroeste 0 -- -- 91
2020-03-25 21:00:00 10.3 0 Calma 9 Sudoeste 0 -- -- 86
2020-03-25 20:00:00 12.4 0 Calma 10 Noroeste 0 -- -- 80
2020-03-25 19:00:00 14.8 5 Oeste 17 Oeste 0 -- -- 70
2020-03-25 18:00:00 16.4 7 Oeste 23 Noroeste 0 -- -- 66
2020-03-25 17:00:00 17.1 12 Noroeste 22 Noroeste 0 -- -- 62
2020-03-25 16:00:00 17.7 16 Noroeste 27 Noroeste 0 -- -- 56
2020-03-25 15:00:00 18.4 15 Noroeste 27 Oeste 0 -- -- 58
2020-03-25 14:00:00 19 11 Noroeste 23 Oeste 0 -- -- 54
2020-03-25 13:00:00 18.5 12 Noroeste 20 Oeste 0 -- -- 51
2020-03-25 12:00:00 17.6 9 Sudoeste 17 Sur 0 -- -- 65
2020-03-25 11:00:00 16.6 4 Sudoeste 9 Sudoeste 0 -- -- 65
2020-03-25 10:00:00 13.4 0 Calma 4 Este 0 -- -- 79
2020-03-25 09:00:00 8.3 0 Calma 10 Nordeste 0 -- -- 94
2020-03-25 08:00:00 5 5 Norte 11 Nordeste 0 -- -- 94
2020-03-25 07:00:00 5.2 4 Norte 10 Norte 0 -- -- 96
2020-03-25 06:00:00 5.2 4 Norte 13 Nordeste 0 -- -- 94
2020-03-25 05:00:00 6.6 6 Norte 12 Norte 0 -- -- 99
2020-03-25 04:00:00 5 3 Norte 6 Norte 0 -- -- 96
2020-03-25 03:00:00 5.3 6 Noroeste 9 Noroeste 0 -- -- 94
2020-03-25 02:00:00 5.8 5 Noroeste 7 Noroeste 0 -- -- 94
2020-03-25 01:00:00 6.3 3 Noroeste 6 Noroeste 0 -- -- 90
2020-03-25 00:00:00 7.5 2 Norte 8 Norte 0 -- -- 89
2020-03-24 23:00:00 8.5 3 Norte 9 Nordeste 0 -- -- 84
2020-03-24 22:00:00 10.2 2 Norte 7 Nordeste 0 -- -- 80
2020-03-24 21:00:00 12.6 0 Calma 4 Norte 0 -- -- 70
2020-03-24 20:00:00 15.3 2 Oeste 13 Noroeste 0 -- -- 60
2020-03-24 19:00:00 17 6 Noroeste 20 Oeste 0 -- -- 55
2020-03-24 18:00:00 18.3 12 Noroeste 26 Oeste 0 -- -- 52
2020-03-24 17:00:00 19.3 14 Noroeste 23 Oeste 0 -- -- 50
2020-03-24 16:00:00 19.3 11 Noroeste 22 Noroeste 0 -- -- 49
2020-03-24 15:00:00 18.4 7 Noroeste 13 Este 0 -- -- 47
2020-03-24 14:00:00 19.3 5 Norte 18 Este 0 -- -- 42
2020-03-24 13:00:00 18.3 10 Este 20 Este 0 -- -- 49
2020-03-24 12:00:00 17.2 12 Este 29 Sudeste 0 -- -- 50
2020-03-24 11:00:00 15.8 15 Este 27 Sur 0 -- -- 54
2020-03-24 10:00:00 13.8 4 Este 26 Este 0 -- -- 65
2020-03-24 09:00:00 11.8 15 Este 21 Este 0 -- -- 71
2020-03-24 08:00:00 10.3 3 Nordeste 21 Este 0 -- -- 74
2020-03-24 07:00:00 9.7 15 Este 25 Este 0 -- -- 79
2020-03-24 06:00:00 9.3 14 Este 35 Este 0 -- -- 84
2020-03-24 05:00:00 9.4 3 Noroeste 19 Este 0 -- -- 82
2020-03-24 04:00:00 10.4 14 Este 30 Este 0 -- -- 80
2020-03-24 03:00:00 10.3 13 Este 27 Este 0 -- -- 81
2020-03-24 02:00:00 10.5 16 Este 35 Este 0 -- -- 80
2020-03-24 01:00:00 10.5 17 Este 39 Este 0 -- -- 80
2020-03-24 00:00:00 10.7 21 Este 39 Este 0 -- -- 79
2020-03-23 23:00:00 10.4 17 Este 32 Este 0 -- -- 79
2020-03-23 22:00:00 10.6 9 Nordeste 29 Nordeste 0 -- -- 78
2020-03-23 21:00:00 11.2 12 Este 24 Este 0 -- -- 78
2020-03-23 20:00:00 12.8 8 Nordeste 24 Este 0 -- -- 73
2020-03-23 19:00:00 15.1 8 Nordeste 20 Nordeste 0 -- -- 67
2020-03-23 18:00:00 17.4 8 Nordeste 23 Nordeste 0 -- -- 59
2020-03-23 17:00:00 17.9 4 Este 14 Nordeste 0 -- -- 53
2020-03-23 16:00:00 17.7 4 Norte 15 Nordeste 0 -- -- 53
2020-03-23 15:00:00 18.5 6 Sudeste 18 Este 0 -- -- 51
2020-03-23 14:00:00 17.4 10 Este 27 Este 0 -- -- 49
2020-03-23 13:00:00 16.2 14 Este 26 Nordeste 0 -- -- 57
2020-03-23 12:00:00 13.6 12 Este 33 Este 0 -- -- 70
2020-03-23 11:00:00 12.3 15 Este 44 Este 0 -- -- 75
2020-03-23 10:00:00 10.5 26 Este 45 Este 0 -- -- 82
2020-03-23 09:00:00 9.7 24 Este 41 Nordeste 0 -- -- 85
2020-03-23 08:00:00 9.2 24 Este 41 Este 0 -- -- 86
2020-03-23 07:00:00 9.6 15 Este 36 Este 0 -- -- 85
2020-03-23 06:00:00 9.9 7 Este 26 Este 0 -- -- 84
2020-03-23 05:00:00 9.7 9 Nordeste 29 Este 0 -- -- 85
2020-03-23 04:00:00 9.8 14 Este 28 Este 0 -- -- 84
2020-03-23 03:00:00 9.9 15 Este 28 Nordeste 0 -- -- 85
2020-03-23 02:00:00 9.8 12 Este 25 Este 0 -- -- 86
2020-03-23 01:00:00 9.4 8 Este 17 Este 0 -- -- 87
2020-03-23 00:00:00 10.2 4 Este 23 Nordeste 0 -- -- 84
2020-03-22 23:00:00 10.7 4 Este 30 Este 0 -- -- 83
2020-03-22 22:00:00 12 5 Nordeste 20 Este 0 -- -- 82
2020-03-22 21:00:00 12.7 7 Norte 16 Noroeste 0 -- -- 85
2020-03-22 20:00:00 14.1 3 Norte 19 Noroeste 0 -- -- 80
2020-03-22 19:00:00 15.7 8 Norte 19 Noroeste 0 -- -- 72
2020-03-22 18:00:00 17 8 Norte 21 Norte 0 -- -- 64
2020-03-22 17:00:00 17.3 8 Nordeste 22 Noroeste 0 -- -- 60
2020-03-22 16:00:00 17 11 Noroeste 20 Oeste 0 -- -- 67
2020-03-22 15:00:00 16.2 7 Oeste 19 Oeste 0 -- -- 72
2020-03-22 14:00:00 16.6 9 Sudoeste 18 Sudoeste 0 -- -- 73
2020-03-22 13:00:00 15.2 9 Este 21 Este 0 -- -- 73
2020-03-22 12:00:00 13.6 13 Este 22 Este 0 -- -- 79
2020-03-22 11:00:00 12.5 9 Este 20 Este 0 -- -- 82
2020-03-22 10:00:00 10.9 6 Nordeste 19 Este 0 -- -- 91
2020-03-22 09:00:00 9.3 3 Noroeste 6 Noroeste 0 -- -- 97
2020-03-22 08:00:00 8.4 0 Calma 5 Noroeste 0 -- -- 97
2020-03-22 07:00:00 8.8 4 Noroeste 8 Norte 0 -- -- 96
2020-03-22 06:00:00 9.2 2 Norte 6 Nordeste 0 -- -- 96
2020-03-22 05:00:00 9.4 2 Nordeste 8 Este 0 -- -- 97
2020-03-22 04:00:00 9.4 3 Norte 13 Norte 0 -- -- 98
2020-03-22 03:00:00 9.3 0 Calma 5 Norte 0 -- -- 99
2020-03-22 02:00:00 9.2 0 Calma 4 Nordeste 0 -- -- 98
2020-03-22 01:00:00 9.2 0 Calma 5 Noroeste 0 -- -- 98
2020-03-22 00:00:00 9.1 0 Calma 5 Noroeste 0 -- -- 97
2020-03-21 23:00:00 9.8 0 Calma 5 Sur 0.4 -- -- 96
2020-03-21 22:00:00 10.3 0 Calma 5 Norte 0.8 -- -- 94
2020-03-21 21:00:00 10.4 3 Noroeste 8 Noroeste 0 -- -- 94
2020-03-21 20:00:00 10.4 5 Noroeste 9 Noroeste 0 -- -- 93
2020-03-21 19:00:00 10.8 2 Oeste 8 Noroeste 0 -- -- 89
2020-03-21 18:00:00 11.3 8 Oeste 18 Noroeste 0 -- -- 85
2020-03-21 17:00:00 12.1 9 Noroeste 15 Noroeste 0 -- -- 87
2020-03-21 16:00:00 13.2 5 Sudoeste 16 Oeste 0 -- -- 85
2020-03-21 15:00:00 14.5 8 Sudoeste 15 Sudoeste 0 -- -- 79
2020-03-21 14:00:00 14.3 6 Oeste 15 Oeste 0 -- -- 79
2020-03-21 13:00:00 13.6 5 Sudoeste 13 Oeste 0 -- -- 80
2020-03-21 12:00:00 13 8 Oeste 12 Oeste 0 -- -- 84
2020-03-21 11:00:00 11.9 3 Sudoeste 13 Sur 0 -- -- 90
2020-03-21 10:00:00 10.9 4 Sur 16 Sur 0 -- -- 95
2020-03-21 09:00:00 11.4 6 Sudeste 17 Sudeste 0 -- -- 98
2020-03-21 08:00:00 9.3 2 Norte 6 Norte 0 -- -- 99
2020-03-21 07:00:00 9.7 2 Nordeste 4 Nordeste 0 -- -- 98
2020-03-21 06:00:00 9.8 0 Calma 5 Sudoeste 0.4 -- -- 98
2020-03-21 05:00:00 10 4 Sudoeste 9 Nordeste 0.4 -- -- 98
2020-03-21 04:00:00 10 0 Calma 19 Este 0 -- -- 98
2020-03-21 03:00:00 10 3 Este 6 Este 0.2 -- -- 99
2020-03-21 02:00:00 10.2 0 Calma 4 Noroeste 0.2 -- -- 99
2020-03-21 01:00:00 10.3 2 Este 4 Nordeste 0 -- -- 98
2020-03-21 00:00:00 10.5 0 Calma 5 Sudoeste 0 -- -- 98
2020-03-20 23:00:00 10.8 2 Noroeste 5 Oeste 0 -- -- 97
2020-03-20 22:00:00 11 0 Calma 5 Noroeste 0 -- -- 96
2020-03-20 21:00:00 11.4 0 Calma 5 Noroeste 0 -- -- 95
2020-03-20 20:00:00 12 0 Calma 6 Noroeste 0 -- -- 93
2020-03-20 19:00:00 12.7 4 Noroeste 6 Noroeste 0 -- -- 92
2020-03-20 18:00:00 12.5 3 Noroeste 6 Norte 0 -- -- 92
2020-03-20 17:00:00 12.4 2 Oeste 11 Sudoeste 0.2 -- -- 91
2020-03-20 16:00:00 12.8 4 Sudoeste 9 Sudoeste 0.2 -- -- 93
2020-03-20 15:00:00 12.1 3 Oeste 12 Oeste 1.6 -- -- 96
2020-03-20 14:00:00 12.4 5 Oeste 10 Sudoeste 0.2 -- -- 96
2020-03-20 13:00:00 11.3 2 Sudeste 7 Sudoeste 0.2 -- -- 98
2020-03-20 12:00:00 11 4 Oeste 17 Sudoeste 0 -- -- 99
2020-03-20 11:00:00 11.3 3 Sudoeste 7 Oeste 0 -- -- 99
2020-03-20 10:00:00 10.7 2 Sudoeste 11 Sudoeste 0 -- -- 99
2020-03-20 09:00:00 10.5 3 Sudoeste 9 Sudoeste 0 -- -- 99
2020-03-20 08:00:00 10.3 0 Calma 6 Sudoeste 0.2 -- -- 98
2020-03-20 07:00:00 10.3 3 Sudoeste 8 Oeste 0 -- -- 98
2020-03-20 06:00:00 10.3 5 Sudoeste 9 Oeste 0 -- -- 97
2020-03-20 05:00:00 10.5 3 Sudoeste 14 Sudoeste 0 -- -- 95
2020-03-20 04:00:00 12 6 Sur 22 Este 0 -- -- 90
2020-03-20 03:00:00 12.1 11 Este 27 Este 0.2 -- -- 90
2020-03-20 02:00:00 12.1 13 Este 22 Este 0 -- -- 94
2020-03-20 01:00:00 11.2 3 Noroeste 6 Sur 1.6 -- -- 95
2020-03-20 00:00:00 11.5 3 Oeste 11 Sudoeste 0 -- -- 94
2020-03-19 23:00:00 11.5 4 Noroeste 6 Noroeste 0 -- -- 94
2020-03-19 22:00:00 11.2 2 Norte 5 Norte 0 -- -- 93
2020-03-19 21:00:00 11.8 0 Calma 13 Sudoeste 0 -- -- 90
2020-03-19 20:00:00 12.9 4 Sudoeste 14 Sudoeste 0 -- -- 86
2020-03-19 19:00:00 15.7 8 Oeste 12 Oeste 0 -- -- 76
2020-03-19 18:00:00 17.3 6 Sudoeste 18 Sudoeste 0 -- -- 65
2020-03-19 17:00:00 18 8 Oeste 22 Sudoeste 0 -- -- 63
2020-03-19 16:00:00 19.5 10 Sudoeste 23 Oeste 0 -- -- 57
2020-03-19 15:00:00 19.9 10 Oeste 21 Oeste 0 -- -- 56
2020-03-19 14:00:00 19.7 12 Oeste 21 Oeste 0 -- -- 57
2020-03-19 13:00:00 19.5 9 Sur 22 Sudoeste 0 -- -- 58
2020-03-19 12:00:00 18.7 12 Sudoeste 20 Sur 0 -- -- 59
2020-03-19 11:00:00 17.3 5 Sudoeste 11 Sudoeste 0 -- -- 63
2020-03-19 10:00:00 12.9 0 Calma 6 Noroeste 0 -- -- 83
2020-03-19 09:00:00 9.2 3 Norte 7 Norte 0 -- -- 90
2020-03-19 08:00:00 9.1 4 Noroeste 8 Noroeste 0 -- -- 87
2020-03-19 07:00:00 9.2 3 Noroeste 11 Nordeste 0 -- -- 88
2020-03-19 06:00:00 8.5 4 Norte 11 Norte 0 -- -- 89
2020-03-19 05:00:00 8.8 4 Norte 10 Noroeste 0 -- -- 88
2020-03-19 04:00:00 9.6 6 Noroeste 9 Noroeste 0 -- -- 88
2020-03-19 03:00:00 9.4 6 Noroeste 10 Norte 0 -- -- 89
2020-03-19 02:00:00 9.3 6 Norte 10 Norte 0 -- -- 90
2020-03-19 01:00:00 9.2 3 Noroeste 9 Noroeste 0 -- -- 88
2020-03-19 00:00:00 11.7 0 Calma 9 Noroeste 0 -- -- 81
2020-03-18 23:00:00 12.4 5 Noroeste 16 Nordeste 0 -- -- 77
2020-03-18 22:00:00 13.4 6 Nordeste 13 Nordeste 0 -- -- 72
2020-03-18 21:00:00 14.4 5 Nordeste 10 Nordeste 0 -- -- 72
2020-03-18 20:00:00 17.7 0 Calma 8 Noroeste 0 -- -- 65
2020-03-18 19:00:00 19.7 5 Noroeste 18 Noroeste 0 -- -- 57
2020-03-18 18:00:00 21 13 Noroeste 21 Noroeste 0 -- -- 51
2020-03-18 17:00:00 22.2 11 Noroeste 20 Norte 0 -- -- 48
2020-03-18 16:00:00 23 6 Este 16 Sudeste 0 -- -- 36
2020-03-18 15:00:00 22.8 5 Sudoeste 24 Sudoeste 0 -- -- 39
2020-03-18 14:00:00 21.6 9 Este 26 Este 0 -- -- 40
2020-03-18 13:00:00 20.3 10 Este 22 Este 0 -- -- 45
2020-03-18 12:00:00 18.9 11 Este 22 Este 0 -- -- 50
2020-03-18 11:00:00 17.5 6 Este 29 Este 0 -- -- 56
2020-03-18 10:00:00 15.4 10 Este 26 Nordeste 0 -- -- 64
2020-03-18 09:00:00 12.8 4 Noroeste 22 Este 0 -- -- 71
2020-03-18 08:00:00 12.3 9 Este 25 Este 0 -- -- 71
2020-03-18 07:00:00 12.8 7 Este 19 Este 0 -- -- 70
2020-03-18 06:00:00 10.2 6 Nordeste 19 Este 0 -- -- 78
2020-03-18 05:00:00 11 6 Nordeste 23 Nordeste 0 -- -- 70
2020-03-18 04:00:00 11.2 5 Norte 21 Este 0 -- -- 75
2020-03-18 03:00:00 11.6 4 Nordeste 19 Este 0 -- -- 74
2020-03-18 02:00:00 12.6 14 Este 24 Este 0 -- -- 73
2020-03-18 01:00:00 12.4 13 Este 24 Este 0 -- -- 73
2020-03-18 00:00:00 12.4 8 Nordeste 22 Este 0 -- -- 76
2020-03-17 23:00:00 13.2 6 Este 21 Este 0 -- -- 71
2020-03-17 22:00:00 13.5 13 Este 28 Este 0 -- -- 69
2020-03-17 21:00:00 14 15 Este 25 Este 0 -- -- 66
2020-03-17 20:00:00 15.5 11 Este 19 Este 0 -- -- 61
2020-03-17 19:00:00 17.5 5 Nordeste 20 Nordeste 0 -- -- 57
2020-03-17 18:00:00 18.9 6 Nordeste 17 Este 0 -- -- 54
2020-03-17 17:00:00 19.1 4 Nordeste 20 Sur 0 -- -- 50
2020-03-17 16:00:00 19.6 13 Sudeste 26 Este 0 -- -- 46
2020-03-17 15:00:00 19.4 13 Este 29 Sudeste 0 -- -- 46
2020-03-17 14:00:00 18.9 9 Sudeste 32 Este 0 -- -- 48
2020-03-17 13:00:00 17.4 13 Este 31 Sudeste 0 -- -- 49
2020-03-17 12:00:00 15.5 8 Norte 17 Noroeste 0 -- -- 53
2020-03-17 11:00:00 13.7 5 Este 20 Este 0 -- -- 57
2020-03-17 10:00:00 11.4 10 Nordeste 36 Nordeste 0 -- -- 62
2020-03-17 09:00:00 7.8 10 Este 34 Este 0 -- -- 71
2020-03-17 08:00:00 6.5 12 Nordeste 35 Este 0 -- -- 74
2020-03-17 07:00:00 6.2 16 Nordeste 44 Este 0 -- -- 74
2020-03-17 06:00:00 6.3 21 Este 45 Este 0 -- -- 74
2020-03-17 05:00:00 6.2 23 Este 40 Este 0 -- -- 74
2020-03-17 04:00:00 6 21 Este 40 Nordeste 0 -- -- 76
2020-03-17 03:00:00 6.2 24 Este 54 Este 0 -- -- 73
2020-03-17 02:00:00 6.3 26 Este 48 Este 0 -- -- 73
2020-03-17 01:00:00 6.6 28 Este 47 Nordeste 0 -- -- 71
2020-03-17 00:00:00 6.5 17 Este 35 Nordeste 0 -- -- 75
2020-03-16 23:00:00 7 17 Este 41 Este 0 -- -- 73
2020-03-16 22:00:00 7.1 13 Nordeste 37 Este 0 -- -- 69
2020-03-16 21:00:00 7.5 16 Este 35 Este 0 -- -- 66
2020-03-16 20:00:00 7.7 10 Nordeste 36 Nordeste 0 -- -- 69
2020-03-16 19:00:00 8.8 12 Este 35 Nordeste 0 -- -- 70
2020-03-16 18:00:00 10.4 14 Norte 42 Norte 0 -- -- 66
2020-03-16 17:00:00 10.5 14 Norte 36 Nordeste 0 -- -- 62
2020-03-16 16:00:00 10.7 10 Nordeste 32 Noroeste 0 -- -- 61
2020-03-16 15:00:00 11.1 13 Nordeste 45 Noroeste 0 -- -- 59
2020-03-16 14:00:00 8.4 10 Nordeste 35 Noroeste 0.4 -- -- 80
2020-03-16 13:00:00 9.5 13 Norte 33 Noroeste 0 -- -- 70
2020-03-16 12:00:00 9.4 12 Nordeste 38 Este 0 -- -- 74
2020-03-16 11:00:00 7.8 8 Nordeste 37 Norte 0 -- -- 79
2020-03-16 10:00:00 6.9 11 Norte 31 Nordeste 0 -- -- 85
2020-03-16 09:00:00 5.2 8 Norte 30 Nordeste 0 -- -- 91
2020-03-16 08:00:00 4.5 8 Norte 27 Norte 0.2 -- -- 93
2020-03-16 07:00:00 4 5 Norte 19 Norte 0 -- -- 95
2020-03-16 06:00:00 3.9 5 Noroeste 18 Noroeste 0.2 -- -- 95
2020-03-16 05:00:00 4 8 Norte 17 Norte 0.2 -- -- 96
2020-03-16 04:00:00 3.6 8 Norte 21 Norte 0.2 -- -- 98
2020-03-16 03:00:00 1.8 4 Norte 12 Norte 0 -- -- 98
2020-03-16 02:00:00 1.2 3 Noroeste 6 Sudeste 0.2 -- -- 97
2020-03-16 01:00:00 1.6 2 Oeste 6 Noroeste 0 -- -- 97
2020-03-16 00:00:00 2.1 0 Calma 4 Nordeste 0.2 -- -- 96
2020-03-15 23:00:00 3.2 0 Calma 12 Noroeste 0.2 -- -- 95
2020-03-15 22:00:00 3 3 Este 5 Este 0 -- -- 95
2020-03-15 21:00:00 4.2 0 Calma 14 Nordeste 0 -- -- 92
2020-03-15 20:00:00 5 2 Nordeste 14 Noroeste 0.4 -- -- 90
2020-03-15 19:00:00 6.3 8 Noroeste 14 Noroeste 0 -- -- 88
2020-03-15 18:00:00 6.1 3 Sur 12 Oeste 1 -- -- 92
2020-03-15 17:00:00 7 9 Noroeste 17 Noroeste 0.2 -- -- 90
2020-03-15 16:00:00 6.2 3 Norte 23 Noroeste 0.6 -- -- 92
2020-03-15 15:00:00 6.6 8 Norte 27 Noroeste 0.8 -- -- 93
2020-03-15 14:00:00 6.7 9 Noroeste 38 Noroeste 2.2 -- -- 94
2020-03-15 13:00:00 8.5 17 Noroeste 36 Noroeste 2.6 -- -- 91
2020-03-15 12:00:00 11.6 9 Sudoeste 25 Sudoeste 0 -- -- 77
2020-03-15 11:00:00 11.3 9 Sudoeste 21 Sudoeste 0 -- -- 83
2020-03-15 10:00:00 9.4 4 Sur 9 Sudeste 0 -- -- 98
2020-03-15 09:00:00 6.8 0 Calma 5 Noroeste 0 -- -- 98
2020-03-15 08:00:00 5.5 5 Noroeste 6 Noroeste 0 -- -- 97
2020-03-15 07:00:00 4.7 0 Calma 6 Noroeste 0 -- -- 97
2020-03-15 06:00:00 3 0 Calma 5 Sudoeste 0 -- -- 97
2020-03-15 05:00:00 1.3 0 Calma 7 Noroeste 0 -- -- 96
2020-03-15 04:00:00 1.7 3 Noroeste 6 Norte 0 -- -- 94
2020-03-15 03:00:00 2.2 4 Noroeste 9 Noroeste 0 -- -- 94
2020-03-15 02:00:00 2.7 4 Norte 10 Nordeste 0 -- -- 92
2020-03-15 01:00:00 3.4 4 Norte 8 Norte 0 -- -- 93
2020-03-15 00:00:00 4.5 0 Calma 10 Este 0 -- -- 91
2020-03-14 23:00:00 5.9 0 Calma 6 Noroeste 0 -- -- 90
2020-03-14 22:00:00 7.7 2 Noroeste 12 Nordeste 0 -- -- 86
2020-03-14 21:00:00 9.8 0 Calma 3 Noroeste 0 -- -- 81
2020-03-14 20:00:00 13.2 2 Sudeste 8 Noroeste 0 -- -- 72
2020-03-14 19:00:00 16 4 Oeste 14 Noroeste 0 -- -- 60
2020-03-14 18:00:00 17.6 9 Noroeste 16 Noroeste 0 -- -- 52
2020-03-14 17:00:00 18.3 9 Noroeste 18 Oeste 0 -- -- 48
2020-03-14 16:00:00 19.1 10 Sudoeste 20 Sur 0 -- -- 48
2020-03-14 15:00:00 19.1 10 Sudoeste 21 Sudoeste 0 -- -- 52
2020-03-14 14:00:00 18.6 9 Oeste 17 Sudoeste 0 -- -- 50
2020-03-14 13:00:00 16.2 8 Este 19 Este 0 -- -- 43
2020-03-14 12:00:00 12.6 9 Este 27 Este 0 -- -- 56
2020-03-14 11:00:00 9.8 14 Este 29 Este 0 -- -- 63
2020-03-14 10:00:00 7.7 14 Nordeste 31 Este 0 -- -- 70
2020-03-14 09:00:00 5.1 10 Nordeste 25 Nordeste 0 -- -- 82
2020-03-14 08:00:00 2.1 7 Norte 23 Nordeste 0 -- -- 87
2020-03-14 07:00:00 3.4 9 Nordeste 24 Nordeste 0 -- -- 87
2020-03-14 06:00:00 4.4 10 Este 32 Nordeste 0 -- -- 84
2020-03-14 05:00:00 2.9 5 Nordeste 15 Nordeste 0 -- -- 81
2020-03-14 04:00:00 4.1 5 Norte 15 Norte 0 -- -- 78
2020-03-14 03:00:00 6.2 6 Norte 36 Este 0 -- -- 70
2020-03-14 02:00:00 4 5 Norte 22 Este 0 -- -- 87
2020-03-14 01:00:00 7.9 18 Este 34 Este 0 -- -- 73
2020-03-14 00:00:00 8.7 21 Este 37 Este 0 -- -- 71
2020-03-13 23:00:00 7.7 3 Norte 30 Este 0 -- -- 81
2020-03-13 22:00:00 8.8 18 Este 37 Este 0 -- -- 79
2020-03-13 21:00:00 9.5 5 Norte 28 Nordeste 0 -- -- 74
2020-03-13 20:00:00 10.7 7 Norte 18 Nordeste 0 -- -- 73
2020-03-13 19:00:00 13.3 5 Nordeste 23 Este 0 -- -- 64
2020-03-13 18:00:00 14.5 9 Este 26 Este 0 -- -- 62
2020-03-13 17:00:00 14.8 10 Nordeste 27 Este 0 -- -- 63
2020-03-13 16:00:00 15.2 8 Nordeste 24 Norte 0 -- -- 64
2020-03-13 15:00:00 15.7 10 Este 25 Este 0 -- -- 61
2020-03-13 14:00:00 13.9 15 Este 33 Este 0 -- -- 67
2020-03-13 13:00:00 13.1 17 Este 31 Este 0 -- -- 71
2020-03-13 12:00:00 12 21 Este 37 Este 0 -- -- 73
2020-03-13 11:00:00 10.9 21 Este 39 Este 0 -- -- 76
2020-03-13 10:00:00 9.9 22 Este 41 Este 0 -- -- 79
2020-03-13 09:00:00 8.5 16 Este 30 Este 0 -- -- 83
2020-03-13 08:00:00 8.2 17 Este 40 Nordeste 0 -- -- 83
2020-03-13 07:00:00 8 7 Norte 48 Este 0 -- -- 83
2020-03-13 06:00:00 7.8 24 Este 51 Este 0 -- -- 82
2020-03-13 05:00:00 7.5 22 Nordeste 54 Este 0 -- -- 82
2020-03-13 04:00:00 7.5 22 Este 50 Nordeste 0 -- -- 83
2020-03-13 03:00:00 7.5 23 Este 51 Este 0 -- -- 83
2020-03-13 02:00:00 7.5 18 Este 41 Este 0 -- -- 83
2020-03-13 01:00:00 7.7 12 Este 35 Este 0 -- -- 83
2020-03-13 00:00:00 8.1 14 Este 32 Nordeste 0 -- -- 83
2020-03-12 23:00:00 8.3 14 Este 32 Este 0 -- -- 82
2020-03-12 22:00:00 8.8 15 Este 33 Este 0 -- -- 80
2020-03-12 21:00:00 9.2 10 Nordeste 31 Nordeste 0 -- -- 81
2020-03-12 20:00:00 9.5 7 Nordeste 24 Nordeste 0 -- -- 86
2020-03-12 19:00:00 9.9 12 Norte 34 Noroeste 0 -- -- 84
2020-03-12 18:00:00 13 10 Norte 27 Norte 0 -- -- 73
2020-03-12 17:00:00 14.8 8 Norte 25 Norte 0 -- -- 66
2020-03-12 16:00:00 15.7 10 Norte 29 Noroeste 0 -- -- 65
2020-03-12 15:00:00 15.9 10 Norte 24 Noroeste 0 -- -- 61
2020-03-12 14:00:00 16.3 7 Norte 24 Norte 0 -- -- 62
2020-03-12 13:00:00 16 8 Nordeste 24 Este 0 -- -- 65
2020-03-12 12:00:00 14.4 16 Este 30 Este 0 -- -- 67
2020-03-12 11:00:00 13.6 9 Nordeste 28 Este 0 -- -- 73
2020-03-12 10:00:00 12.7 6 Este 25 Este 0 -- -- 76
2020-03-12 09:00:00 10.7 12 Este 30 Este 0 -- -- 84
2020-03-12 08:00:00 9.8 11 Este 27 Este 0 -- -- 89
2020-03-12 07:00:00 9.5 4 Nordeste 13 Este 0 -- -- 95
2020-03-12 06:00:00 9.4 3 Norte 11 Nordeste 0 -- -- 97
2020-03-12 05:00:00 9.4 6 Nordeste 16 Nordeste 0 -- -- 98
2020-03-12 04:00:00 8.6 4 Nordeste 9 Nordeste 0 -- -- 95
2020-03-12 03:00:00 8.6 4 Nordeste 9 Noroeste 0 -- -- 97
2020-03-12 02:00:00 7.1 4 Norte 9 Nordeste 0 -- -- 97
2020-03-12 01:00:00 7.9 3 Norte 7 Este 0 -- -- 97
2020-03-12 00:00:00 8.8 0 Calma 8 Nordeste 0 -- -- 96
2020-03-11 23:00:00 10 2 Norte 8 Nordeste 0 -- -- 95
2020-03-11 22:00:00 11.1 2 Norte 7 Noroeste 0 -- -- 95
2020-03-11 21:00:00 11.5 0 Calma 4 Noroeste 0 -- -- 93
2020-03-11 20:00:00 13 0 Calma 12 Noroeste 0 -- -- 89
2020-03-11 19:00:00 14.1 9 Noroeste 17 Oeste 0 -- -- 86
2020-03-11 18:00:00 16.1 9 Noroeste 18 Noroeste 0 -- -- 78
2020-03-11 17:00:00 18.5 8 Sudoeste 17 Oeste 0 -- -- 69
2020-03-11 16:00:00 19.2 8 Oeste 21 Sudoeste 0 -- -- 63
2020-03-11 15:00:00 18.9 9 Oeste 22 Oeste 0 -- -- 63
2020-03-11 14:00:00 18.7 8 Sudoeste 17 Oeste 0 -- -- 62
2020-03-11 13:00:00 17.4 7 Sudoeste 16 Sudoeste 0 -- -- 73
2020-03-11 12:00:00 15.8 7 Sudoeste 12 Sudoeste 0 -- -- 79
2020-03-11 11:00:00 13.6 4 Sudoeste 8 Oeste 0 -- -- 85
2020-03-11 10:00:00 11 0 Calma 5 Noroeste 0 -- -- 98
2020-03-11 09:00:00 6.3 4 Noroeste 7 Noroeste 0 -- -- 100
2020-03-11 08:00:00 4.3 3 Norte 7 Norte 0 -- -- 99
2020-03-11 07:00:00 4.1 3 Norte 8 Noroeste 0 -- -- 98
2020-03-11 06:00:00 4.5 3 Norte 10 Nordeste 0 -- -- 97
2020-03-11 05:00:00 4.6 4 Norte 12 Nordeste 0 -- -- 98
2020-03-11 04:00:00 4.9 3 Norte 9 Nordeste 0 -- -- 97
2020-03-11 03:00:00 5.9 3 Norte 8 Nordeste 0 -- -- 99
2020-03-11 02:00:00 5.3 4 Noroeste 6 Noroeste 0 -- -- 97
2020-03-11 01:00:00 6.2 3 Noroeste 9 Norte 0 -- -- 96
2020-03-11 00:00:00 6.4 2 Noroeste 6 Norte 0 -- -- 96
2020-03-10 23:00:00 6.9 3 Norte 7 Nordeste 0 -- -- 95
2020-03-10 22:00:00 8 2 Norte 5 Norte 0 -- -- 93
2020-03-10 21:00:00 10 0 Calma 3 Noroeste 0 -- -- 91
2020-03-10 20:00:00 11.6 0 Calma 6 Noroeste 0 -- -- 88
2020-03-10 19:00:00 13.2 6 Noroeste 14 Oeste 0 -- -- 83
2020-03-10 18:00:00 15.7 7 Sudoeste 17 Sudoeste 0 -- -- 74
2020-03-10 17:00:00 16.5 6 Oeste 18 Oeste 0 -- -- 70
2020-03-10 16:00:00 16.2 10 Oeste 20 Oeste 0 -- -- 69
2020-03-10 15:00:00 15.8 13 Oeste 23 Sudoeste 0 -- -- 69
2020-03-10 14:00:00 15.1 8 Sudoeste 21 Oeste 0 -- -- 62
2020-03-10 13:00:00 14.3 7 Oeste 18 Oeste 0 -- -- 65
2020-03-10 12:00:00 13.4 8 Oeste 21 Sudoeste 0 -- -- 72
2020-03-10 11:00:00 10.7 3 Este 8 Sudeste 0 -- -- 92
2020-03-10 10:00:00 6.5 0 Calma 6 Noroeste 0 -- -- 100
2020-03-10 09:00:00 2.6 3 Noroeste 5 Noroeste 0 -- -- 100
2020-03-10 08:00:00 2.2 3 Norte 8 Noroeste 0 -- -- 99
2020-03-10 07:00:00 2.1 2 Noroeste 5 Noroeste 0 -- -- 99
2020-03-10 06:00:00 2.4 3 Noroeste 5 Noroeste 0 -- -- 99
2020-03-10 05:00:00 2.8 2 Nordeste 7 Norte 0 -- -- 98
2020-03-10 04:00:00 2.7 2 Norte 7 Nordeste 0 -- -- 98
2020-03-10 03:00:00 3 3 Noroeste 6 Noroeste 0 -- -- 98
2020-03-10 02:00:00 3.4 0 Calma 5 Noroeste 0 -- -- 97
2020-03-10 01:00:00 4.3 0 Calma 8 Norte 0 -- -- 97
2020-03-10 00:00:00 4.8 3 Norte 9 Nordeste 0 -- -- 95
2020-03-09 23:00:00 5.6 3 Norte 8 Noroeste 0 -- -- 94
2020-03-09 22:00:00 6.9 0 Calma 4 Este 0 -- -- 92
2020-03-09 21:00:00 8.2 0 Calma 4 Noroeste 0 -- -- 89
2020-03-09 20:00:00 9.6 2 Noroeste 7 Noroeste 0 -- -- 84
2020-03-09 19:00:00 11.6 4 Noroeste 13 Noroeste 0 -- -- 79
2020-03-09 18:00:00 13 8 Noroeste 14 Noroeste 0 -- -- 72
2020-03-09 17:00:00 13.7 7 Noroeste 16 Noroeste 0 -- -- 69
2020-03-09 16:00:00 13.4 6 Norte 16 Noroeste 0 -- -- 68
2020-03-09 15:00:00 13.7 7 Oeste 18 Noroeste 0 -- -- 68
2020-03-09 14:00:00 12.4 8 Noroeste 19 Noroeste 0 -- -- 70
2020-03-09 13:00:00 11.6 9 Noroeste 14 Noroeste 0 -- -- 75
2020-03-09 12:00:00 10.8 4 Sudeste 10 Sur 0 -- -- 85
2020-03-09 11:00:00 8.5 0 Calma 5 Oeste 0 -- -- 100
2020-03-09 10:00:00 5.6 3 Noroeste 8 Noroeste 0 -- -- 100
2020-03-09 09:00:00 2.7 3 Norte 6 Nordeste 0 -- -- 100
2020-03-09 08:00:00 1.8 4 Noroeste 6 Noroeste 0 -- -- 100
2020-03-09 07:00:00 2.5 0 Calma 6 Noroeste 0 -- -- 100
2020-03-09 06:00:00 2.8 3 Norte 5 Noroeste 0 -- -- 99
2020-03-09 05:00:00 3.6 2 Noroeste 10 Nordeste 0 -- -- 98
2020-03-09 04:00:00 4.9 2 Norte 6 Noroeste 0 -- -- 98
2020-03-09 03:00:00 6.3 0 Calma 3 Este 0 -- -- 98
2020-03-09 02:00:00 7.6 0 Calma 2 Sur 0 -- -- 98
2020-03-09 01:00:00 8.2 0 Calma 8 Noroeste 0 -- -- 97
2020-03-09 00:00:00 8.2 0 Calma 3 Este 0 -- -- 97
2020-03-08 23:00:00 8.3 0 Calma 4 Norte 0 -- -- 95
2020-03-08 22:00:00 8.7 0 Calma 8 Oeste 0 -- -- 93
2020-03-08 21:00:00 9.3 4 Noroeste 19 Noroeste 0 -- -- 91
2020-03-08 20:00:00 10 5 Oeste 14 Oeste 0 -- -- 94
2020-03-08 19:00:00 10.6 4 Oeste 17 Sudoeste 0 -- -- 92
2020-03-08 18:00:00 11.2 6 Oeste 19 Oeste 0 -- -- 93
2020-03-08 17:00:00 11.3 10 Oeste 24 Sur 0 -- -- 96
2020-03-08 16:00:00 10.6 9 Oeste 23 Oeste 0.2 -- -- 98
2020-03-08 15:00:00 9.9 4 Sudoeste 17 Sur 0.8 -- -- 98
2020-03-08 14:00:00 9.5 7 Sudoeste 21 Sudoeste 0.6 -- -- 97
2020-03-08 13:00:00 9.4 8 Sudoeste 23 Sudoeste 0.2 -- -- 97
2020-03-08 12:00:00 9 9 Sur 23 Sudoeste 0.2 -- -- 98
2020-03-08 11:00:00 8.3 6 Sur 15 Sur 0.6 -- -- 97
2020-03-08 10:00:00 7.8 8 Sur 15 Sur 1 -- -- 97
2020-03-08 09:00:00 7.6 3 Sur 12 Sudoeste 0.8 -- -- 95
2020-03-08 08:00:00 7.7 4 Sur 13 Sudoeste 0 -- -- 93
2020-03-08 07:00:00 7.3 2 Oeste 10 Sudoeste 0 -- -- 94
2020-03-08 06:00:00 6.2 2 Sudeste 8 Sur 0 -- -- 98
2020-03-08 05:00:00 5.1 0 Calma 5 Noroeste 0 -- -- 98
2020-03-08 04:00:00 4.1 3 Noroeste 7 Noroeste 0 -- -- 97
2020-03-08 03:00:00 3.3 3 Noroeste 8 Noroeste 0 -- -- 97
2020-03-08 02:00:00 3.1 3 Noroeste 6 Noroeste 0 -- -- 95
2020-03-08 01:00:00 4.7 3 Noroeste 6 Noroeste 0 -- -- 93
2020-03-08 00:00:00 6 3 Noroeste 9 Noroeste 0 -- -- 92
2020-03-07 23:00:00 6.9 2 Noroeste 4 Noroeste 0 -- -- 89
2020-03-07 22:00:00 8.5 0 Calma 5 Sudoeste 0 -- -- 83
2020-03-07 21:00:00 9.1 2 Sudoeste 10 Sudoeste 0 -- -- 80
2020-03-07 20:00:00 9.7 4 Oeste 16 Noroeste 0 -- -- 75
2020-03-07 19:00:00 10.6 10 Noroeste 22 Noroeste 0 -- -- 72
2020-03-07 18:00:00 11.3 9 Noroeste 17 Noroeste 0 -- -- 69
2020-03-07 17:00:00 12.4 9 Noroeste 22 Noroeste 0 -- -- 66
2020-03-07 16:00:00 13.5 10 Oeste 21 Oeste 0 -- -- 61
2020-03-07 15:00:00 13.9 9 Sudoeste 19 Oeste 0 -- -- 59
2020-03-07 14:00:00 13.7 7 Sudoeste 15 Oeste 0 -- -- 58
2020-03-07 13:00:00 12 9 Oeste 17 Noroeste 0 -- -- 61
2020-03-07 12:00:00 11.2 4 Norte 12 Noroeste 0 -- -- 61
2020-03-07 11:00:00 10.8 5 Norte 11 Norte 0 -- -- 65
2020-03-07 10:00:00 8.1 3 Nordeste 11 Nordeste 0 -- -- 91
2020-03-07 09:00:00 5.7 6 Nordeste 14 Nordeste 0 -- -- 97
2020-03-07 08:00:00 4.6 5 Nordeste 10 Nordeste 0 -- -- 97
2020-03-07 07:00:00 5.4 2 Norte 5 Nordeste 0 -- -- 97
2020-03-07 06:00:00 6.7 0 Calma 4 Noroeste 0 -- -- 96
2020-03-07 05:00:00 7.6 0 Calma 3 Sur 0 -- -- 96
2020-03-07 04:00:00 7.8 2 Sur 3 Sudeste 0 -- -- 96
2020-03-07 03:00:00 7.9 0 Calma 4 Noroeste 0 -- -- 95
2020-03-07 02:00:00 7.9 0 Calma 5 Sudoeste 0 -- -- 94
2020-03-07 01:00:00 8 3 Sudoeste 5 Sudoeste 0 -- -- 93
2020-03-07 00:00:00 7.9 0 Calma 4 Sur 0 -- -- 92
2020-03-06 23:00:00 7.9 0 Calma 8 Nordeste 0 -- -- 90
2020-03-06 22:00:00 7.9 0 Calma 10 Norte 0 -- -- 86
2020-03-06 21:00:00 8.4 7 Noroeste 19 Norte 0 -- -- 78
2020-03-06 20:00:00 8.7 3 Noroeste 11 Noroeste 0 -- -- 73
2020-03-06 19:00:00 9.5 5 Norte 31 Noroeste 0 -- -- 68
2020-03-06 18:00:00 10.4 13 Noroeste 28 Noroeste 0 -- -- 65
2020-03-06 17:00:00 11.4 13 Norte 31 Noroeste 0 -- -- 57
2020-03-06 16:00:00 11.7 15 Noroeste 35 Noroeste 0 -- -- 56
2020-03-06 15:00:00 11.1 16 Noroeste 32 Noroeste 0 -- -- 57
2020-03-06 14:00:00 10.4 17 Noroeste 37 Noroeste 0 -- -- 66
2020-03-06 13:00:00 9.8 19 Noroeste 36 Noroeste 0 -- -- 73
2020-03-06 12:00:00 9 17 Noroeste 35 Noroeste 0 -- -- 80
2020-03-06 11:00:00 7.5 9 Noroeste 28 Noroeste 0 -- -- 87
2020-03-06 10:00:00 6.6 6 Noroeste 29 Noroeste 0.2 -- -- 92
2020-03-06 09:00:00 6 11 Noroeste 25 Norte 0.2 -- -- 92
2020-03-06 08:00:00 5.7 5 Noroeste 24 Noroeste 0 -- -- 92
2020-03-06 07:00:00 6 14 Noroeste 31 Noroeste 0.2 -- -- 94
2020-03-06 06:00:00 6 17 Noroeste 30 Noroeste 0.6 -- -- 94
2020-03-06 05:00:00 6 6 Oeste 32 Noroeste 0.2 -- -- 92
2020-03-06 04:00:00 6.4 6 Oeste 26 Noroeste 0.2 -- -- 92
2020-03-06 03:00:00 7.1 9 Noroeste 24 Oeste 0.2 -- -- 92
2020-03-06 02:00:00 7.5 11 Noroeste 35 Noroeste 0 -- -- 95
2020-03-06 01:00:00 7.7 21 Noroeste 38 Oeste 1.2 -- -- 95
2020-03-06 00:00:00 7.7 15 Noroeste 45 Noroeste 1.4 -- -- 95
2020-03-05 23:00:00 8.1 20 Oeste 37 Oeste 1.6 -- -- 96
2020-03-05 22:00:00 7.8 13 Oeste 38 Oeste 1.2 -- -- 95
2020-03-05 21:00:00 7.9 5 Sudoeste 25 Oeste 0.2 -- -- 95
2020-03-05 20:00:00 8.1 11 Oeste 27 Oeste 1.4 -- -- 91
2020-03-05 19:00:00 9.2 12 Oeste 28 Sudoeste 0 -- -- 87
2020-03-05 18:00:00 10 12 Oeste 32 Noroeste 0 -- -- 78
2020-03-05 17:00:00 10.7 14 Noroeste 35 Oeste 0.2 -- -- 79
2020-03-05 16:00:00 9.5 12 Noroeste 32 Noroeste 1 -- -- 91
2020-03-05 15:00:00 10.4 15 Noroeste 31 Noroeste 2.2 -- -- 88
2020-03-05 14:00:00 9.3 5 Noroeste 26 Noroeste 0.8 -- -- 90
2020-03-05 13:00:00 10.2 16 Noroeste 31 Norte 0 -- -- 89
2020-03-05 12:00:00 9.7 18 Noroeste 38 Noroeste 0.4 -- -- 97
2020-03-05 11:00:00 9.5 13 Oeste 41 Oeste 1.8 -- -- 97
2020-03-05 10:00:00 8.7 15 Oeste 37 Oeste 2.2 -- -- 97
2020-03-05 09:00:00 8.7 10 Oeste 35 Oeste 0.2 -- -- 95
2020-03-05 08:00:00 8.5 14 Oeste 51 Oeste 3.4 -- -- 96
2020-03-05 07:00:00 9.2 17 Oeste 36 Oeste 0.8 -- -- 97
2020-03-05 06:00:00 9.2 13 Oeste 32 Sudoeste 0.8 -- -- 99
2020-03-05 05:00:00 9.8 13 Oeste 41 Oeste 5 -- -- 99
2020-03-05 04:00:00 9.7 14 Oeste 48 Sudoeste 10 -- -- 99
2020-03-05 03:00:00 12.3 14 Sudoeste 42 Sudoeste 13.8 -- -- 99
2020-03-05 02:00:00 12.5 21 Sudoeste 44 Sur 8 -- -- 99
2020-03-05 01:00:00 12.7 18 Sudoeste 44 Sudoeste 1.6 -- -- 99
2020-03-05 00:00:00 12.9 17 Sudoeste 42 Sudoeste 0 -- -- 100
2020-03-04 23:00:00 13 16 Sudoeste 44 Sudoeste 0.2 -- -- 100
2020-03-04 22:00:00 12.9 16 Sudoeste 38 Oeste 0.6 -- -- 100
2020-03-04 21:00:00 13.2 15 Oeste 40 Oeste 2.6 -- -- 100
2020-03-04 20:00:00 13.2 13 Sudoeste 35 Sudoeste 5.4 -- -- 100
2020-03-04 19:00:00 13.2 12 Sudoeste 37 Sudoeste 1.2 -- -- 99
2020-03-04 18:00:00 13.4 12 Sudoeste 29 Sudoeste 2.8 -- -- 99
2020-03-04 17:00:00 13.5 12 Sudoeste 28 Sudoeste 1 -- -- 99
2020-03-04 16:00:00 13.4 9 Oeste 28 Sudoeste 1.8 -- -- 98
2020-03-04 15:00:00 13.8 13 Oeste 39 Sudoeste 0.2 -- -- 97
2020-03-04 14:00:00 14.1 15 Oeste 32 Oeste 0 -- -- 99
2020-03-04 13:00:00 13.7 14 Sudoeste 33 Sudoeste 0.2 -- -- 100
2020-03-04 12:00:00 12.6 13 Oeste 32 Sudoeste 0 -- -- 100
2020-03-04 11:00:00 12.3 12 Sudoeste 27 Oeste 0.2 -- -- 100
2020-03-04 10:00:00 11.9 12 Oeste 24 Oeste 3.4 -- -- 100
2020-03-04 09:00:00 12 11 Sudoeste 25 Oeste 0.6 -- -- 100
2020-03-04 08:00:00 11.8 10 Oeste 28 Oeste 0.6 -- -- 100
2020-03-04 07:00:00 11.8 12 Oeste 28 Oeste 0 -- -- 100
2020-03-04 06:00:00 11.8 10 Sudoeste 28 Oeste 0.2 -- -- 100
2020-03-04 05:00:00 11.9 14 Sudoeste 33 Oeste 0 -- -- 100
2020-03-04 04:00:00 12.1 10 Sudoeste 31 Sudoeste 0.8 -- -- 100
2020-03-04 03:00:00 12 14 Sudoeste 27 Sudoeste 2.2 -- -- 100
2020-03-04 02:00:00 11.9 11 Sudoeste 26 Sudoeste 2.6 -- -- 100
2020-03-04 01:00:00 11.9 10 Oeste 30 Sudoeste 1.8 -- -- 100
2020-03-04 00:00:00 12.1 12 Oeste 25 Sudoeste 1.4 -- -- 100
2020-03-03 23:00:00 12.2 7 Sudoeste 19 Sudoeste 2.4 -- -- 100
2020-03-03 22:00:00 12.2 7 Oeste 18 Sudoeste 3.6 -- -- 99
2020-03-03 21:00:00 12.2 9 Oeste 21 Sudoeste 4 -- -- 99
2020-03-03 20:00:00 12.1 6 Oeste 14 Oeste 5 -- -- 99
2020-03-03 19:00:00 12 3 Sudoeste 12 Sudoeste 2.2 -- -- 98
2020-03-03 18:00:00 12.2 5 Sudoeste 13 Sudoeste 0.6 -- -- 98
2020-03-03 17:00:00 12.4 5 Sudoeste 24 Noroeste 0.6 -- -- 97
2020-03-03 16:00:00 12.3 14 Noroeste 23 Oeste 1.4 -- -- 97
2020-03-03 15:00:00 12.8 9 Oeste 24 Oeste 0 -- -- 96
2020-03-03 14:00:00 12.5 17 Oeste 38 Oeste 1.2 -- -- 99
2020-03-03 13:00:00 12.9 13 Oeste 33 Oeste 2.6 -- -- 99
2020-03-03 12:00:00 12.6 15 Oeste 38 Oeste 3.6 -- -- 99
2020-03-03 11:00:00 12.4 10 Oeste 37 Oeste 3 -- -- 99
2020-03-03 10:00:00 12.3 16 Oeste 52 Oeste 2.8 -- -- 99
2020-03-03 09:00:00 11.8 13 Oeste 46 Sudoeste 5.2 -- -- 99
2020-03-03 08:00:00 11.4 19 Sudoeste 51 Sudoeste 5.8 -- -- 99
2020-03-03 07:00:00 10.9 19 Sudoeste 43 Sudoeste 1.6 -- -- 99
2020-03-03 06:00:00 10 17 Sudoeste 41 Sudoeste 5.4 -- -- 98
2020-03-03 05:00:00 9.1 22 Sudoeste 49 Sudoeste 6.4 -- -- 98
2020-03-03 04:00:00 8.5 9 Sur 28 Sur 1.2 -- -- 98
2020-03-03 03:00:00 8.4 13 Sur 32 Sudoeste 1.8 -- -- 98
2020-03-03 02:00:00 8.5 11 Sudoeste 26 Oeste 2.6 -- -- 97
2020-03-03 01:00:00 8.3 8 Sudoeste 26 Sudoeste 1 -- -- 96
2020-03-03 00:00:00 7.9 3 Sudoeste 10 Sudoeste 0 -- -- 95
2020-03-02 23:00:00 7.6 3 Sudoeste 21 Sudoeste 0 -- -- 95
2020-03-02 22:00:00 7.5 7 Sudoeste 21 Sudoeste 0 -- -- 94
2020-03-02 21:00:00 7.4 5 Sudoeste 22 Sudoeste 0 -- -- 92
2020-03-02 20:00:00 7.6 6 Sudoeste 17 Sudoeste 0.2 -- -- 87
2020-03-02 19:00:00 8.3 5 Sudoeste 19 Oeste 0 -- -- 79
2020-03-02 18:00:00 8.8 10 Oeste 30 Sudoeste 0 -- -- 74
2020-03-02 17:00:00 9.1 14 Oeste 30 Noroeste 0 -- -- 74
2020-03-02 16:00:00 8.9 16 Noroeste 35 Noroeste 0 -- -- 65
2020-03-02 15:00:00 8.6 13 Oeste 44 Noroeste 0.2 -- -- 82
2020-03-02 14:00:00 9.3 21 Noroeste 46 Noroeste 0 -- -- 63
2020-03-02 13:00:00 9.2 26 Noroeste 49 Noroeste 0 -- -- 74
2020-03-02 12:00:00 7.3 13 Noroeste 26 Noroeste 0 -- -- 89
2020-03-02 11:00:00 5.7 8 Noroeste 37 Norte 1.4 -- -- 95
2020-03-02 10:00:00 6.7 8 Oeste 21 Oeste 0 -- -- 96
2020-03-02 09:00:00 6.1 12 Noroeste 50 Oeste 0.6 -- -- 97
2020-03-02 08:00:00 6.3 7 Oeste 20 Oeste 0 -- -- 97
2020-03-02 07:00:00 6.2 12 Noroeste 55 Noroeste 0.6 -- -- 96
2020-03-02 06:00:00 7.4 20 Noroeste 45 Noroeste 0.2 -- -- 96
2020-03-02 05:00:00 7.6 22 Noroeste 50 Oeste 1.2 -- -- 97
2020-03-02 04:00:00 8.2 16 Oeste 45 Noroeste 0.2 -- -- 98
2020-03-02 03:00:00 8.7 25 Noroeste 63 Noroeste 1.4 -- -- 99
2020-03-02 02:00:00 9.8 37 Noroeste 68 Oeste 5.6 -- -- 98
2020-03-02 01:00:00 12 27 Oeste 72 Sudoeste 5.2 -- -- 99
2020-03-02 00:00:00 11.8 25 Oeste 77 Sudoeste 4.2 -- -- 98
2020-03-01 23:00:00 12 33 Oeste 82 Sudoeste 13.2 -- -- 99
2020-03-01 22:00:00 12.1 32 Sudoeste 75 Sudoeste 16.6 -- -- 98
2020-03-01 21:00:00 9.3 7 Sudoeste 32 Sudoeste 6.2 -- -- 97
2020-03-01 20:00:00 9.5 15 Sudoeste 31 Sudoeste 7.2 -- -- 96
2020-03-01 19:00:00 9.8 12 Sur 24 Sudoeste 6.2 -- -- 95
2020-03-01 18:00:00 10.2 15 Sudoeste 36 Oeste 3.6 -- -- 93
2020-03-01 17:00:00 11.9 14 Sudoeste 34 Sudoeste 0 -- -- 81
2020-03-01 16:00:00 11.3 12 Oeste 41 Oeste 0 -- -- 80
2020-03-01 15:00:00 11.6 15 Sudoeste 34 Sudoeste 0 -- -- 76
2020-03-01 14:00:00 11.8 13 Sudoeste 34 Oeste 0 -- -- 75
2020-03-01 13:00:00 11.5 13 Sudoeste 35 Sudoeste 0 -- -- 79
2020-03-01 12:00:00 11.7 17 Sudoeste 41 Oeste 0 -- -- 77
2020-03-01 11:00:00 10.9 10 Sudoeste 22 Sudoeste 0 -- -- 84
2020-03-01 10:00:00 10.2 9 Sudoeste 23 Sur 0 -- -- 88
2020-03-01 09:00:00 9.7 10 Oeste 30 Noroeste 0 -- -- 92
2020-03-01 08:00:00 9.8 17 Noroeste 42 Oeste 1.4 -- -- 94
2020-03-01 07:00:00 10.6 13 Oeste 40 Oeste 0 -- -- 93
2020-03-01 06:00:00 10.4 11 Oeste 50 Sudoeste 0.2 -- -- 94
2020-03-01 05:00:00 10.5 22 Oeste 55 Oeste 11.2 -- -- 99
2020-03-01 04:00:00 9.1 14 Sudoeste 40 Sudoeste 2 -- -- 98
2020-03-01 03:00:00 8.7 16 Sudoeste 42 Sudoeste 1.4 -- -- 98
2020-03-01 02:00:00 8.1 9 Sur 33 Sur 0.4 -- -- 97
2020-03-01 01:00:00 8 13 Sudoeste 37 Sudoeste 1.6 -- -- 98
2020-03-01 00:00:00 7.7 6 Sur 18 Sur 0.2 -- -- 97
2020-02-29 23:00:00 7.7 6 Sur 23 Sudoeste 0 -- -- 97
2020-02-29 22:00:00 7.8 11 Oeste 24 Oeste 1 -- -- 96
2020-02-29 21:00:00 7.9 7 Sudoeste 21 Oeste 0.2 -- -- 96
2020-02-29 20:00:00 7.8 7 Sudoeste 23 Oeste 0.8 -- -- 94
2020-02-29 19:00:00 8.2 6 Sudoeste 37 Oeste 0.8 -- -- 92
2020-02-29 18:00:00 9.2 10 Oeste 28 Sudoeste 0 -- -- 81
2020-02-29 17:00:00 9.7 10 Sudoeste 31 Oeste 0 -- -- 79
2020-02-29 16:00:00 9.9 16 Oeste 33 Oeste 0 -- -- 81
2020-02-29 15:00:00 9.3 11 Oeste 31 Sudoeste 0.4 -- -- 87
2020-02-29 14:00:00 9.6 14 Oeste 31 Oeste 0 -- -- 83
2020-02-29 13:00:00 8.6 17 Oeste 44 Sudoeste 0.8 -- -- 91
2020-02-29 12:00:00 9.4 14 Oeste 30 Oeste 0 -- -- 85
2020-02-29 11:00:00 9.2 13 Oeste 30 Oeste 0 -- -- 85
2020-02-29 10:00:00 8.8 10 Oeste 37 Sudoeste 0 -- -- 88
2020-02-29 09:00:00 8.7 10 Oeste 34 Oeste 0 -- -- 87
2020-02-29 08:00:00 9 17 Oeste 33 Oeste 0 -- -- 92
2020-02-29 07:00:00 8.8 9 Oeste 32 Oeste 0.6 -- -- 97
2020-02-29 06:00:00 9.3 13 Oeste 55 Oeste 3.4 -- -- 97
2020-02-29 05:00:00 11.4 20 Oeste 49 Oeste 16.6 -- -- 98
2020-02-29 04:00:00 10.7 18 Sudoeste 52 Sudoeste 9.6 -- -- 97
2020-02-29 03:00:00 10.3 24 Sudoeste 47 Sudoeste 7 -- -- 97
2020-02-29 02:00:00 9.5 16 Sudoeste 38 Sur 1 -- -- 96
2020-02-29 01:00:00 9 17 Sur 47 Sur 2.2 -- -- 93
2020-02-29 00:00:00 9.4 17 Sur 45 Sudoeste 0 -- -- 85